sensor_id;sensor_type;location;lat;lon;timestamp;temperature;humidity
4054;DHT22;2042;47.956;9.222;2023-03-14T00:01:38;7.60;30.10
4054;DHT22;2042;47.956;9.222;2023-03-14T00:04:05;7.60;30.00
4054;DHT22;2042;47.956;9.222;2023-03-14T00:06:31;7.60;29.40
4054;DHT22;2042;47.956;9.222;2023-03-14T00:08:56;7.50;28.90
4054;DHT22;2042;47.956;9.222;2023-03-14T00:11:22;7.40;28.60
4054;DHT22;2042;47.956;9.222;2023-03-14T00:13:51;7.30;28.50
4054;DHT22;2042;47.956;9.222;2023-03-14T00:16:18;7.20;28.30
4054;DHT22;2042;47.956;9.222;2023-03-14T00:18:43;7.20;28.30
4054;DHT22;2042;47.956;9.222;2023-03-14T00:21:10;7.10;28.60
4054;DHT22;2042;47.956;9.222;2023-03-14T00:23:38;7.10;28.80
4054;DHT22;2042;47.956;9.222;2023-03-14T00:26:07;7.10;29.00
4054;DHT22;2042;47.956;9.222;2023-03-14T00:28:33;7.10;29.30
4054;DHT22;2042;47.956;9.222;2023-03-14T00:30:59;7.10;29.40
4054;DHT22;2042;47.956;9.222;2023-03-14T00:33:27;7.00;29.60
4054;DHT22;2042;47.956;9.222;2023-03-14T00:35:57;7.00;29.50
4054;DHT22;2042;47.956;9.222;2023-03-14T00:38:23;7.00;29.10
4054;DHT22;2042;47.956;9.222;2023-03-14T00:40:50;7.00;29.20
4054;DHT22;2042;47.956;9.222;2023-03-14T00:43:17;6.90;29.30
4054;DHT22;2042;47.956;9.222;2023-03-14T00:45:42;6.90;29.30
4054;DHT22;2042;47.956;9.222;2023-03-14T00:48:08;6.90;29.10
4054;DHT22;2042;47.956;9.222;2023-03-14T00:50:33;6.90;28.60
4054;DHT22;2042;47.956;9.222;2023-03-14T00:52:59;6.80;28.30
4054;DHT22;2042;47.956;9.222;2023-03-14T00:55:25;6.80;28.30
4054;DHT22;2042;47.956;9.222;2023-03-14T00:57:51;6.80;28.30
4054;DHT22;2042;47.956;9.222;2023-03-14T01:00:17;6.80;28.20
4054;DHT22;2042;47.956;9.222;2023-03-14T01:02:43;6.70;28.20
4054;DHT22;2042;47.956;9.222;2023-03-14T01:05:08;6.70;28.20
4054;DHT22;2042;47.956;9.222;2023-03-14T01:07:36;6.70;28.30
4054;DHT22;2042;47.956;9.222;2023-03-14T01:10:02;6.60;28.30
4054;DHT22;2042;47.956;9.222;2023-03-14T01:12:28;6.60;28.30
4054;DHT22;2042;47.956;9.222;2023-03-14T01:14:54;6.60;28.50
4054;DHT22;2042;47.956;9.222;2023-03-14T01:17:19;6.60;28.60
4054;DHT22;2042;47.956;9.222;2023-03-14T01:19:45;6.60;29.00
4054;DHT22;2042;47.956;9.222;2023-03-14T01:22:11;6.60;29.20
4054;DHT22;2042;47.956;9.222;2023-03-14T01:24:37;6.60;29.40
4054;DHT22;2042;47.956;9.222;2023-03-14T01:27:03;6.60;29.50
4054;DHT22;2042;47.956;9.222;2023-03-14T01:29:29;6.60;29.60
4054;DHT22;2042;47.956;9.222;2023-03-14T01:31:54;6.50;29.50
4054;DHT22;2042;47.956;9.222;2023-03-14T01:34:20;6.60;29.60
4054;DHT22;2042;47.956;9.222;2023-03-14T01:36:46;6.60;29.70
4054;DHT22;2042;47.956;9.222;2023-03-14T01:39:11;6.60;29.90
4054;DHT22;2042;47.956;9.222;2023-03-14T01:41:39;6.60;30.10
4054;DHT22;2042;47.956;9.222;2023-03-14T01:44:05;6.60;30.10
4054;DHT22;2042;47.956;9.222;2023-03-14T01:46:43;6.60;30.20
4054;DHT22;2042;47.956;9.222;2023-03-14T01:49:30;6.60;30.30
4054;DHT22;2042;47.956;9.222;2023-03-14T01:52:07;6.60;30.30
4054;DHT22;2042;47.956;9.222;2023-03-14T01:54:57;6.60;30.40
4054;DHT22;2042;47.956;9.222;2023-03-14T01:57:31;6.60;30.60
4054;DHT22;2042;47.956;9.222;2023-03-14T02:00:05;6.60;30.70
4054;DHT22;2042;47.956;9.222;2023-03-14T02:02:36;6.60;30.90
4054;DHT22;2042;47.956;9.222;2023-03-14T02:05:03;6.70;31.10
4054;DHT22;2042;47.956;9.222;2023-03-14T02:08:02;6.70;31.20
4054;DHT22;2042;47.956;9.222;2023-03-14T02:10:31;6.70;31.30
4054;DHT22;2042;47.956;9.222;2023-03-14T02:13:18;6.70;31.20
4054;DHT22;2042;47.956;9.222;2023-03-14T02:15:44;6.70;31.10
4054;DHT22;2042;47.956;9.222;2023-03-14T02:18:10;6.70;31.10
4054;DHT22;2042;47.956;9.222;2023-03-14T02:24:05;6.70;31.10
4054;DHT22;2042;47.956;9.222;2023-03-14T02:27:04;6.70;30.90
4054;DHT22;2042;47.956;9.222;2023-03-14T02:29:28;6.70;31.20
4054;DHT22;2042;47.956;9.222;2023-03-14T02:31:54;6.70;30.50
4054;DHT22;2042;47.956;9.222;2023-03-14T02:34:20;6.70;30.30
4054;DHT22;2042;47.956;9.222;2023-03-14T02:36:46;6.70;30.20
4054;DHT22;2042;47.956;9.222;2023-03-14T02:39:21;6.70;30.10
4054;DHT22;2042;47.956;9.222;2023-03-14T02:41:49;6.60;30.00
4054;DHT22;2042;47.956;9.222;2023-03-14T02:44:15;6.60;30.00
4054;DHT22;2042;47.956;9.222;2023-03-14T02:46:41;6.60;29.80
4054;DHT22;2042;47.956;9.222;2023-03-14T02:49:08;6.50;29.70
4054;DHT22;2042;47.956;9.222;2023-03-14T02:51:35;6.50;29.60
4054;DHT22;2042;47.956;9.222;2023-03-14T02:54:02;6.50;29.60
4054;DHT22;2042;47.956;9.222;2023-03-14T02:56:27;6.50;29.70
4054;DHT22;2042;47.956;9.222;2023-03-14T02:58:53;6.40;29.60
4054;DHT22;2042;47.956;9.222;2023-03-14T03:01:19;6.40;29.60
4054;DHT22;2042;47.956;9.222;2023-03-14T03:03:45;6.40;36.40
4054;DHT22;2042;47.956;9.222;2023-03-14T03:06:10;6.40;35.70
4054;DHT22;2042;47.956;9.222;2023-03-14T03:08:36;6.30;35.20
4054;DHT22;2042;47.956;9.222;2023-03-14T03:11:02;6.30;35.20
4054;DHT22;2042;47.956;9.222;2023-03-14T03:13:27;6.30;37.90
4054;DHT22;2042;47.956;9.222;2023-03-14T03:15:53;6.30;37.60
4054;DHT22;2042;47.956;9.222;2023-03-14T03:18:19;6.30;37.00
4054;DHT22;2042;47.956;9.222;2023-03-14T03:20:45;6.30;36.80
4054;DHT22;2042;47.956;9.222;2023-03-14T03:23:11;6.30;36.60
4054;DHT22;2042;47.956;9.222;2023-03-14T03:25:37;6.30;36.70
4054;DHT22;2042;47.956;9.222;2023-03-14T03:28:02;6.30;35.00
4054;DHT22;2042;47.956;9.222;2023-03-14T03:30:34;6.30;34.80
4054;DHT22;2042;47.956;9.222;2023-03-14T03:32:59;6.30;34.30
4054;DHT22;2042;47.956;9.222;2023-03-14T03:35:25;6.40;34.00
4054;DHT22;2042;47.956;9.222;2023-03-14T03:37:50;6.40;33.10
4054;DHT22;2042;47.956;9.222;2023-03-14T03:40:16;6.30;30.80
4054;DHT22;2042;47.956;9.222;2023-03-14T03:42:42;6.30;29.40
4054;DHT22;2042;47.956;9.222;2023-03-14T03:45:08;6.30;28.30
4054;DHT22;2042;47.956;9.222;2023-03-14T03:47:33;6.30;34.20
4054;DHT22;2042;47.956;9.222;2023-03-14T03:49:59;6.20;33.60
4054;DHT22;2042;47.956;9.222;2023-03-14T03:52:25;6.30;32.90
4054;DHT22;2042;47.956;9.222;2023-03-14T03:54:50;6.20;31.80
4054;DHT22;2042;47.956;9.222;2023-03-14T03:57:16;6.20;30.70
4054;DHT22;2042;47.956;9.222;2023-03-14T03:59:41;6.30;30.00
4054;DHT22;2042;47.956;9.222;2023-03-14T04:02:07;6.20;29.40
4054;DHT22;2042;47.956;9.222;2023-03-14T04:04:33;6.20;29.30
4054;DHT22;2042;47.956;9.222;2023-03-14T04:06:59;6.20;28.90
4054;DHT22;2042;47.956;9.222;2023-03-14T04:09:24;6.10;28.10
4054;DHT22;2042;47.956;9.222;2023-03-14T04:11:50;6.20;27.70
4054;DHT22;2042;47.956;9.222;2023-03-14T04:14:15;6.10;27.70
4054;DHT22;2042;47.956;9.222;2023-03-14T04:16:41;6.10;27.70
4054;DHT22;2042;47.956;9.222;2023-03-14T04:19:07;6.10;27.60
4054;DHT22;2042;47.956;9.222;2023-03-14T04:21:32;6.10;27.20
4054;DHT22;2042;47.956;9.222;2023-03-14T04:23:58;6.10;27.30
4054;DHT22;2042;47.956;9.222;2023-03-14T04:26:24;6.10;26.90
4054;DHT22;2042;47.956;9.222;2023-03-14T04:28:49;6.00;26.40
4054;DHT22;2042;47.956;9.222;2023-03-14T04:31:18;6.10;26.80
4054;DHT22;2042;47.956;9.222;2023-03-14T04:33:44;6.00;27.60
4054;DHT22;2042;47.956;9.222;2023-03-14T04:36:10;6.00;27.60
4054;DHT22;2042;47.956;9.222;2023-03-14T04:38:35;6.00;27.20
4054;DHT22;2042;47.956;9.222;2023-03-14T04:41:02;6.00;26.90
4054;DHT22;2042;47.956;9.222;2023-03-14T04:43:28;6.00;26.40
4054;DHT22;2042;47.956;9.222;2023-03-14T04:45:54;6.00;26.40
4054;DHT22;2042;47.956;9.222;2023-03-14T04:48:20;6.00;26.40
4054;DHT22;2042;47.956;9.222;2023-03-14T04:50:47;5.90;26.60
4054;DHT22;2042;47.956;9.222;2023-03-14T04:53:14;5.90;27.00
4054;DHT22;2042;47.956;9.222;2023-03-14T04:55:39;5.90;27.00
4054;DHT22;2042;47.956;9.222;2023-03-14T04:58:05;5.90;27.00
4054;DHT22;2042;47.956;9.222;2023-03-14T05:00:31;5.90;26.90
4054;DHT22;2042;47.956;9.222;2023-03-14T05:02:57;5.80;26.80
4054;DHT22;2042;47.956;9.222;2023-03-14T05:05:22;5.80;27.10
4054;DHT22;2042;47.956;9.222;2023-03-14T05:07:48;5.80;27.70
4054;DHT22;2042;47.956;9.222;2023-03-14T05:10:14;5.80;28.30
4054;DHT22;2042;47.956;9.222;2023-03-14T05:12:39;5.80;28.60
4054;DHT22;2042;47.956;9.222;2023-03-14T05:15:05;5.90;29.00
4054;DHT22;2042;47.956;9.222;2023-03-14T05:17:32;6.00;29.00
4054;DHT22;2042;47.956;9.222;2023-03-14T05:19:58;6.00;28.50
4054;DHT22;2042;47.956;9.222;2023-03-14T05:22:24;6.00;28.40
4054;DHT22;2042;47.956;9.222;2023-03-14T05:24:50;6.00;28.00
4054;DHT22;2042;47.956;9.222;2023-03-14T05:27:15;5.90;29.00
4054;DHT22;2042;47.956;9.222;2023-03-14T05:29:41;5.90;28.20
4054;DHT22;2042;47.956;9.222;2023-03-14T05:32:07;5.90;28.00
4054;DHT22;2042;47.956;9.222;2023-03-14T05:34:32;5.90;27.70
4054;DHT22;2042;47.956;9.222;2023-03-14T05:36:58;5.90;27.50
4054;DHT22;2042;47.956;9.222;2023-03-14T05:39:24;5.90;26.80
4054;DHT22;2042;47.956;9.222;2023-03-14T05:41:49;5.90;26.40
4054;DHT22;2042;47.956;9.222;2023-03-14T05:44:16;5.90;26.00
4054;DHT22;2042;47.956;9.222;2023-03-14T05:46:42;5.90;25.70
4054;DHT22;2042;47.956;9.222;2023-03-14T05:49:07;5.90;25.30
4054;DHT22;2042;47.956;9.222;2023-03-14T05:51:33;5.90;24.50
4054;DHT22;2042;47.956;9.222;2023-03-14T05:53:58;5.90;23.80
4054;DHT22;2042;47.956;9.222;2023-03-14T05:56:24;6.00;24.00
4054;DHT22;2042;47.956;9.222;2023-03-14T05:58:49;6.00;24.00
4054;DHT22;2042;47.956;9.222;2023-03-14T06:01:15;6.10;22.20
4054;DHT22;2042;47.956;9.222;2023-03-14T06:03:41;6.10;20.80
4054;DHT22;2042;47.956;9.222;2023-03-14T06:06:06;6.10;19.50
4054;DHT22;2042;47.956;9.222;2023-03-14T06:08:32;6.10;18.50
4054;DHT22;2042;47.956;9.222;2023-03-14T06:10:58;6.10;17.70
4054;DHT22;2042;47.956;9.222;2023-03-14T06:13:23;6.10;16.90
4054;DHT22;2042;47.956;9.222;2023-03-14T06:15:49;6.10;16.60
4054;DHT22;2042;47.956;9.222;2023-03-14T06:18:15;6.10;16.50
4054;DHT22;2042;47.956;9.222;2023-03-14T06:20:40;6.10;16.50
4054;DHT22;2042;47.956;9.222;2023-03-14T06:23:07;6.10;16.30
4054;DHT22;2042;47.956;9.222;2023-03-14T06:25:34;6.20;15.60
4054;DHT22;2042;47.956;9.222;2023-03-14T06:28:00;6.20;15.10
4054;DHT22;2042;47.956;9.222;2023-03-14T06:30:25;6.30;14.90
4054;DHT22;2042;47.956;9.222;2023-03-14T06:32:51;6.30;13.40
4054;DHT22;2042;47.956;9.222;2023-03-14T06:35:17;6.40;11.30
4054;DHT22;2042;47.956;9.222;2023-03-14T06:37:42;6.40;10.60
4054;DHT22;2042;47.956;9.222;2023-03-14T06:40:10;6.50;8.80
4054;DHT22;2042;47.956;9.222;2023-03-14T06:42:36;6.50;7.60
4054;DHT22;2042;47.956;9.222;2023-03-14T06:45:02;6.50;7.50
4054;DHT22;2042;47.956;9.222;2023-03-14T06:47:28;6.60;7.60
4054;DHT22;2042;47.956;9.222;2023-03-14T06:49:54;6.60;7.30
4054;DHT22;2042;47.956;9.222;2023-03-14T06:52:19;6.70;5.40
4054;DHT22;2042;47.956;9.222;2023-03-14T06:54:47;6.70;3.40
4054;DHT22;2042;47.956;9.222;2023-03-14T06:57:12;6.70;1.00
4054;DHT22;2042;47.956;9.222;2023-03-14T06:59:38;6.80;1.00
4054;DHT22;2042;47.956;9.222;2023-03-14T07:02:04;6.90;1.00
4054;DHT22;2042;47.956;9.222;2023-03-14T07:06:55;7.00;1.00
4054;DHT22;2042;47.956;9.222;2023-03-14T07:09:21;7.10;1.00
4054;DHT22;2042;47.956;9.222;2023-03-14T07:11:47;7.10;1.00
4054;DHT22;2042;47.956;9.222;2023-03-14T07:14:12;7.20;1.00
4054;DHT22;2042;47.956;9.222;2023-03-14T07:16:38;7.30;1.00
4054;DHT22;2042;47.956;9.222;2023-03-14T07:19:03;7.30;1.00
4054;DHT22;2042;47.956;9.222;2023-03-14T07:21:29;7.40;1.00
4054;DHT22;2042;47.956;9.222;2023-03-14T07:23:55;7.40;1.00
4054;DHT22;2042;47.956;9.222;2023-03-14T07:26:21;7.50;1.00
4054;DHT22;2042;47.956;9.222;2023-03-14T07:28:46;7.60;1.00
4054;DHT22;2042;47.956;9.222;2023-03-14T07:31:12;7.80;1.00
4054;DHT22;2042;47.956;9.222;2023-03-14T07:33:38;7.90;1.00
4054;DHT22;2042;47.956;9.222;2023-03-14T07:36:06;8.50;1.00
4054;DHT22;2042;47.956;9.222;2023-03-14T07:38:32;8.40;1.00
4054;DHT22;2042;47.956;9.222;2023-03-14T07:41:02;8.80;1.00
4054;DHT22;2042;47.956;9.222;2023-03-14T07:43:28;9.30;1.00
4054;DHT22;2042;47.956;9.222;2023-03-14T07:45:54;9.90;1.00
4054;DHT22;2042;47.956;9.222;2023-03-14T07:48:20;10.50;1.00
4054;DHT22;2042;47.956;9.222;2023-03-14T07:50:51;11.00;1.00
4054;DHT22;2042;47.956;9.222;2023-03-14T07:53:17;11.10;1.00
4054;DHT22;2042;47.956;9.222;2023-03-14T07:55:44;11.20;1.00
4054;DHT22;2042;47.956;9.222;2023-03-14T07:58:09;11.60;1.00
4054;DHT22;2042;47.956;9.222;2023-03-14T08:00:35;11.80;1.00
4054;DHT22;2042;47.956;9.222;2023-03-14T08:05:27;12.50;1.00
4054;DHT22;2042;47.956;9.222;2023-03-14T08:07:52;12.90;1.00
4054;DHT22;2042;47.956;9.222;2023-03-14T08:10:18;13.20;1.00
4054;DHT22;2042;47.956;9.222;2023-03-14T08:12:49;13.20;1.00
4054;DHT22;2042;47.956;9.222;2023-03-14T08:15:14;13.60;1.00
4054;DHT22;2042;47.956;9.222;2023-03-14T08:17:40;13.70;1.00
4054;DHT22;2042;47.956;9.222;2023-03-14T08:20:06;13.80;1.00
4054;DHT22;2042;47.956;9.222;2023-03-14T08:22:37;14.00;1.00
4054;DHT22;2042;47.956;9.222;2023-03-14T08:25:03;14.00;1.00
4054;DHT22;2042;47.956;9.222;2023-03-14T08:27:29;14.10;1.00
4054;DHT22;2042;47.956;9.222;2023-03-14T08:29:54;13.90;1.00
4054;DHT22;2042;47.956;9.222;2023-03-14T08:32:20;14.40;1.00
4054;DHT22;2042;47.956;9.222;2023-03-14T08:34:47;15.30;1.00
4054;DHT22;2042;47.956;9.222;2023-03-14T09:18:40;11.80;1.00
4054;DHT22;2042;47.956;9.222;2023-03-14T09:21:06;11.70;1.00
4054;DHT22;2042;47.956;9.222;2023-03-14T09:23:31;11.50;1.00
4054;DHT22;2042;47.956;9.222;2023-03-14T09:25:59;11.40;1.00
4054;DHT22;2042;47.956;9.222;2023-03-14T09:28:26;11.60;1.00
4054;DHT22;2042;47.956;9.222;2023-03-14T09:30:52;11.80;1.00
4054;DHT22;2042;47.956;9.222;2023-03-14T09:33:18;11.80;1.00
4054;DHT22;2042;47.956;9.222;2023-03-14T09:35:44;11.90;1.00
4054;DHT22;2042;47.956;9.222;2023-03-14T09:38:09;12.10;1.00
4054;DHT22;2042;47.956;9.222;2023-03-14T09:40:36;12.20;1.00
4054;DHT22;2042;47.956;9.222;2023-03-14T09:43:03;12.30;1.00
4054;DHT22;2042;47.956;9.222;2023-03-14T09:45:35;12.30;1.00
4054;DHT22;2042;47.956;9.222;2023-03-14T09:48:03;12.10;1.00
4054;DHT22;2042;47.956;9.222;2023-03-14T09:50:48;12.00;1.00
4054;DHT22;2042;47.956;9.222;2023-03-14T09:53:17;11.80;1.00
4054;DHT22;2042;47.956;9.222;2023-03-14T09:55:48;11.80;1.00
4054;DHT22;2042;47.956;9.222;2023-03-14T11:20:52;10.30;1.00
4054;DHT22;2042;47.956;9.222;2023-03-14T11:26:25;9.70;1.00
4054;DHT22;2042;47.956;9.222;2023-03-14T13:19:14;6.80;1.00
4054;DHT22;2042;47.956;9.222;2023-03-14T13:21:42;6.50;1.00
4054;DHT22;2042;47.956;9.222;2023-03-14T13:24:25;6.40;1.00
4054;DHT22;2042;47.956;9.222;2023-03-14T13:26:55;6.40;1.00
4054;DHT22;2042;47.956;9.222;2023-03-14T13:29:27;6.50;1.00
4054;DHT22;2042;47.956;9.222;2023-03-14T13:31:55;6.70;1.00
4054;DHT22;2042;47.956;9.222;2023-03-14T13:34:32;7.20;1.00
4054;DHT22;2042;47.956;9.222;2023-03-14T13:36:59;7.50;1.00
4054;DHT22;2042;47.956;9.222;2023-03-14T13:39:26;7.60;1.00
4054;DHT22;2042;47.956;9.222;2023-03-14T13:41:57;7.60;1.00
4054;DHT22;2042;47.956;9.222;2023-03-14T13:46:51;7.60;1.00
4054;DHT22;2042;47.956;9.222;2023-03-14T13:49:22;7.50;1.00
4054;DHT22;2042;47.956;9.222;2023-03-14T13:51:48;7.30;1.00
4054;DHT22;2042;47.956;9.222;2023-03-14T13:54:16;7.30;1.00
4054;DHT22;2042;47.956;9.222;2023-03-14T13:56:42;7.40;1.00
4054;DHT22;2042;47.956;9.222;2023-03-14T13:59:25;7.50;1.00
4054;DHT22;2042;47.956;9.222;2023-03-14T14:01:52;7.60;1.00
4054;DHT22;2042;47.956;9.222;2023-03-14T14:04:21;7.80;1.00
4054;DHT22;2042;47.956;9.222;2023-03-14T14:09:40;8.80;1.00
4054;DHT22;2042;47.956;9.222;2023-03-14T14:12:10;9.10;1.00
4054;DHT22;2042;47.956;9.222;2023-03-14T14:14:50;9.60;1.00
4054;DHT22;2042;47.956;9.222;2023-03-14T14:17:45;9.60;1.00
4054;DHT22;2042;47.956;9.222;2023-03-14T14:20:38;9.40;1.00
4054;DHT22;2042;47.956;9.222;2023-03-14T14:23:07;9.30;1.00
4054;DHT22;2042;47.956;9.222;2023-03-14T14:25:35;9.20;1.00
4054;DHT22;2042;47.956;9.222;2023-03-14T14:28:25;9.00;1.00
4054;DHT22;2042;47.956;9.222;2023-03-14T14:31:17;8.70;1.00
4054;DHT22;2042;47.956;9.222;2023-03-14T14:33:52;8.30;1.00
4054;DHT22;2042;47.956;9.222;2023-03-14T14:39:00;7.80;1.00
4054;DHT22;2042;47.956;9.222;2023-03-14T14:41:31;7.70;1.00
4054;DHT22;2042;47.956;9.222;2023-03-14T14:43:59;7.70;1.00
4054;DHT22;2042;47.956;9.222;2023-03-14T14:46:28;7.80;1.00
4054;DHT22;2042;47.956;9.222;2023-03-14T14:49:12;7.70;1.00
4054;DHT22;2042;47.956;9.222;2023-03-14T14:51:43;7.40;1.00
4054;DHT22;2042;47.956;9.222;2023-03-14T14:54:20;7.20;1.00
4054;DHT22;2042;47.956;9.222;2023-03-14T14:57:03;7.10;1.00
4054;DHT22;2042;47.956;9.222;2023-03-14T14:59:29;6.90;1.00
4054;DHT22;2042;47.956;9.222;2023-03-14T15:01:58;6.40;1.00
4054;DHT22;2042;47.956;9.222;2023-03-14T15:04:24;6.90;1.00
4054;DHT22;2042;47.956;9.222;2023-03-14T15:06:50;7.00;1.00
4054;DHT22;2042;47.956;9.222;2023-03-14T15:09:18;7.10;1.00
4054;DHT22;2042;47.956;9.222;2023-03-14T15:11:46;7.20;1.00
4054;DHT22;2042;47.956;9.222;2023-03-14T15:14:12;7.20;1.00
4054;DHT22;2042;47.956;9.222;2023-03-14T15:16:38;7.20;1.00
4054;DHT22;2042;47.956;9.222;2023-03-14T15:19:11;7.10;1.00
4054;DHT22;2042;47.956;9.222;2023-03-14T15:21:37;7.10;1.00
4054;DHT22;2042;47.956;9.222;2023-03-14T15:24:04;7.10;1.00
4054;DHT22;2042;47.956;9.222;2023-03-14T15:26:31;7.10;1.00
4054;DHT22;2042;47.956;9.222;2023-03-14T15:28:56;7.00;1.00
4054;DHT22;2042;47.956;9.222;2023-03-14T15:31:22;7.00;1.00
4054;DHT22;2042;47.956;9.222;2023-03-14T15:33:48;7.00;1.00
4054;DHT22;2042;47.956;9.222;2023-03-14T15:36:29;7.00;1.00
4054;DHT22;2042;47.956;9.222;2023-03-14T15:38:56;7.10;1.00
4054;DHT22;2042;47.956;9.222;2023-03-14T15:41:24;7.10;1.00
4054;DHT22;2042;47.956;9.222;2023-03-14T15:43:50;7.10;1.00
4054;DHT22;2042;47.956;9.222;2023-03-14T15:46:25;7.10;1.00
4054;DHT22;2042;47.956;9.222;2023-03-14T15:48:51;7.20;1.00
4054;DHT22;2042;47.956;9.222;2023-03-14T15:51:18;7.20;1.00
4054;DHT22;2042;47.956;9.222;2023-03-14T15:53:44;7.30;1.00
4054;DHT22;2042;47.956;9.222;2023-03-14T15:56:18;7.40;1.00
4054;DHT22;2042;47.956;9.222;2023-03-14T15:58:44;7.60;1.00
4054;DHT22;2042;47.956;9.222;2023-03-14T16:01:12;7.50;1.00
4054;DHT22;2042;47.956;9.222;2023-03-14T16:03:38;7.30;1.00
4054;DHT22;2042;47.956;9.222;2023-03-14T16:06:07;7.20;1.00
4054;DHT22;2042;47.956;9.222;2023-03-14T16:08:33;7.10;1.00
4054;DHT22;2042;47.956;9.222;2023-03-14T16:10:59;7.10;1.00
4054;DHT22;2042;47.956;9.222;2023-03-14T16:13:25;7.00;1.00
4054;DHT22;2042;47.956;9.222;2023-03-14T16:16:01;7.00;1.00
4054;DHT22;2042;47.956;9.222;2023-03-14T16:18:29;6.90;1.00
4054;DHT22;2042;47.956;9.222;2023-03-14T16:20:57;6.90;1.00
4054;DHT22;2042;47.956;9.222;2023-03-14T16:23:23;6.80;1.00
4054;DHT22;2042;47.956;9.222;2023-03-14T16:25:50;6.60;1.00
4054;DHT22;2042;47.956;9.222;2023-03-14T16:28:16;6.50;1.00
4054;DHT22;2042;47.956;9.222;2023-03-14T18:40:25;4.70;1.00
4054;DHT22;2042;47.956;9.222;2023-03-14T18:42:50;4.20;1.00
4054;DHT22;2042;47.956;9.222;2023-03-14T18:48:39;3.10;1.00
4054;DHT22;2042;47.956;9.222;2023-03-14T18:51:28;2.70;1.00
4054;DHT22;2042;47.956;9.222;2023-03-14T18:54:13;2.40;1.00
4054;DHT22;2042;47.956;9.222;2023-03-14T18:56:48;2.20;1.00
4054;DHT22;2042;47.956;9.222;2023-03-14T18:59:34;2.00;1.00
4054;DHT22;2042;47.956;9.222;2023-03-14T19:02:00;1.90;1.00
4054;DHT22;2042;47.956;9.222;2023-03-14T19:04:26;1.90;1.00
4054;DHT22;2042;47.956;9.222;2023-03-14T19:06:51;2.00;1.00
4054;DHT22;2042;47.956;9.222;2023-03-14T19:09:18;2.10;4.20
4054;DHT22;2042;47.956;9.222;2023-03-14T19:32:26;2.00;4.70
4054;DHT22;2042;47.956;9.222;2023-03-14T19:34:51;2.00;4.90
4054;DHT22;2042;47.956;9.222;2023-03-14T19:37:17;2.00;4.80
4054;DHT22;2042;47.956;9.222;2023-03-14T19:39:43;2.00;4.70
4054;DHT22;2042;47.956;9.222;2023-03-14T19:42:11;2.00;4.60
4054;DHT22;2042;47.956;9.222;2023-03-14T19:44:37;2.00;4.80
4054;DHT22;2042;47.956;9.222;2023-03-14T19:47:03;2.00;6.20
4054;DHT22;2042;47.956;9.222;2023-03-14T19:49:31;2.10;7.40
4054;DHT22;2042;47.956;9.222;2023-03-14T19:51:57;2.10;8.60
4054;DHT22;2042;47.956;9.222;2023-03-14T19:54:23;2.10;9.60
4054;DHT22;2042;47.956;9.222;2023-03-14T19:56:49;2.20;10.40
4054;DHT22;2042;47.956;9.222;2023-03-14T19:59:16;2.20;11.10
4054;DHT22;2042;47.956;9.222;2023-03-14T20:01:42;2.20;11.50
4054;DHT22;2042;47.956;9.222;2023-03-14T20:04:11;2.20;12.00
4054;DHT22;2042;47.956;9.222;2023-03-14T20:06:40;2.20;12.40
4054;DHT22;2042;47.956;9.222;2023-03-14T20:09:08;2.30;12.80
4054;DHT22;2042;47.956;9.222;2023-03-14T20:11:37;2.30;13.60
4054;DHT22;2042;47.956;9.222;2023-03-14T20:14:06;2.40;14.20
4054;DHT22;2042;47.956;9.222;2023-03-14T21:13:53;2.00;13.10
4054;DHT22;2042;47.956;9.222;2023-03-14T21:16:19;2.10;15.10
4054;DHT22;2042;47.956;9.222;2023-03-14T21:18:45;2.30;16.40
4054;DHT22;2042;47.956;9.222;2023-03-14T21:21:10;2.40;17.00
4054;DHT22;2042;47.956;9.222;2023-03-14T21:23:36;2.40;17.20
4054;DHT22;2042;47.956;9.222;2023-03-14T21:26:01;2.50;17.60
4054;DHT22;2042;47.956;9.222;2023-03-14T21:28:27;2.60;18.00
4054;DHT22;2042;47.956;9.222;2023-03-14T21:30:53;2.60;18.00
4054;DHT22;2042;47.956;9.222;2023-03-14T21:33:19;2.60;18.40
4054;DHT22;2042;47.956;9.222;2023-03-14T21:35:45;2.60;18.70
4054;DHT22;2042;47.956;9.222;2023-03-14T21:38:10;2.60;19.20
4054;DHT22;2042;47.956;9.222;2023-03-14T21:40:37;2.70;19.90
4054;DHT22;2042;47.956;9.222;2023-03-14T21:43:04;2.70;19.90
4054;DHT22;2042;47.956;9.222;2023-03-14T21:45:30;2.70;20.00
4054;DHT22;2042;47.956;9.222;2023-03-14T21:47:57;2.70;20.00
4054;DHT22;2042;47.956;9.222;2023-03-14T21:50:24;2.80;20.10
4054;DHT22;2042;47.956;9.222;2023-03-14T21:52:51;2.80;20.20
4054;DHT22;2042;47.956;9.222;2023-03-14T21:55:21;2.80;20.20
4054;DHT22;2042;47.956;9.222;2023-03-14T21:57:50;2.80;20.40
4054;DHT22;2042;47.956;9.222;2023-03-14T22:00:18;2.80;20.50
4054;DHT22;2042;47.956;9.222;2023-03-14T22:02:46;2.80;20.30
4054;DHT22;2042;47.956;9.222;2023-03-14T22:05:13;2.80;20.20
4054;DHT22;2042;47.956;9.222;2023-03-14T22:07:41;2.70;20.10
4054;DHT22;2042;47.956;9.222;2023-03-14T22:10:10;2.60;19.90
4054;DHT22;2042;47.956;9.222;2023-03-14T22:12:36;2.50;19.30
4054;DHT22;2042;47.956;9.222;2023-03-14T22:15:03;2.40;18.80
4054;DHT22;2042;47.956;9.222;2023-03-14T22:17:29;2.20;18.20
4054;DHT22;2042;47.956;9.222;2023-03-14T22:19:55;2.10;18.70
4054;DHT22;2042;47.956;9.222;2023-03-14T22:22:21;2.10;19.60
4054;DHT22;2042;47.956;9.222;2023-03-14T22:24:50;2.10;20.20
4054;DHT22;2042;47.956;9.222;2023-03-14T22:27:19;2.20;21.30
4054;DHT22;2042;47.956;9.222;2023-03-14T22:29:45;2.20;22.10
4054;DHT22;2042;47.956;9.222;2023-03-14T22:32:11;2.30;22.90
4054;DHT22;2042;47.956;9.222;2023-03-14T22:34:37;2.40;23.40
4054;DHT22;2042;47.956;9.222;2023-03-14T22:37:05;2.50;23.70
4054;DHT22;2042;47.956;9.222;2023-03-14T22:39:32;2.60;24.10
4054;DHT22;2042;47.956;9.222;2023-03-14T22:42:01;2.60;24.30
4054;DHT22;2042;47.956;9.222;2023-03-14T22:44:26;2.70;24.50
